sensor_id;sensor_type;location;lat;lon;timestamp;P1;durP1;ratioP1;P2;durP2;ratioP2
49820;SDS011;36893;52.520;13.450;2024-01-15T00:03:48;5.63;;;2.27;;
49820;SDS011;36893;52.520;13.450;2024-01-15T00:13:49;3.93;;;2.10;;
49820;SDS011;36893;52.520;13.450;2024-01-15T00:23:50;6.13;;;2.30;;
49820;SDS011;36893;52.520;13.450;2024-01-15T00:33:50;3.60;;;2.20;;
49820;SDS011;36893;52.520;13.450;2024-01-15T00:43:52;4.18;;;1.92;;
49820;SDS011;36893;52.520;13.450;2024-01-15T00:53:52;3.30;;;1.77;;
49820;SDS011;36893;52.520;13.450;2024-01-15T01:03:53;4.57;;;1.87;;
49820;SDS011;36893;52.520;13.450;2024-01-15T01:13:54;5.22;;;1.92;;
49820;SDS011;36893;52.520;13.450;2024-01-15T01:23:56;5.07;;;2.33;;
49820;SDS011;36893;52.520;13.450;2024-01-15T01:33:57;3.83;;;1.87;;
49820;SDS011;36893;52.520;13.450;2024-01-15T01:43:57;4.00;;;1.80;;
49820;SDS011;36893;52.520;13.450;2024-01-15T01:53:58;4.27;;;1.53;;
49820;SDS011;36893;52.520;13.450;2024-01-15T02:03:59;4.27;;;1.87;;
49820;SDS011;36893;52.520;13.450;2024-01-15T02:14:00;8.10;;;1.75;;
49820;SDS011;36893;52.520;13.450;2024-01-15T02:24:02;3.90;;;1.60;;
49820;SDS011;36893;52.520;13.450;2024-01-15T02:34:03;4.07;;;1.88;;
49820;SDS011;36893;52.520;13.450;2024-01-15T02:44:04;2.30;;;1.35;;
49820;SDS011;36893;52.520;13.450;2024-01-15T02:54:04;2.20;;;1.43;;
49820;SDS011;36893;52.520;13.450;2024-01-15T03:04:05;2.40;;;1.30;;
49820;SDS011;36893;52.520;13.450;2024-01-15T03:14:06;3.33;;;1.40;;
49820;SDS011;36893;52.520;13.450;2024-01-15T03:24:06;5.43;;;1.53;;
49820;SDS011;36893;52.520;13.450;2024-01-15T03:34:07;2.03;;;1.27;;
49820;SDS011;36893;52.520;13.450;2024-01-15T03:44:07;1.97;;;1.10;;
49820;SDS011;36893;52.520;13.450;2024-01-15T03:54:08;3.00;;;1.50;;
49820;SDS011;36893;52.520;13.450;2024-01-15T04:04:09;4.40;;;1.43;;
49820;SDS011;36893;52.520;13.450;2024-01-15T04:14:09;1.93;;;1.13;;
49820;SDS011;36893;52.520;13.450;2024-01-15T04:24:10;3.53;;;1.40;;
49820;SDS011;36893;52.520;13.450;2024-01-15T04:34:11;3.43;;;1.20;;
49820;SDS011;36893;52.520;13.450;2024-01-15T04:44:11;2.10;;;1.40;;
49820;SDS011;36893;52.520;13.450;2024-01-15T04:54:12;1.83;;;1.07;;
49820;SDS011;36893;52.520;13.450;2024-01-15T05:04:13;2.50;;;1.02;;
49820;SDS011;36893;52.520;13.450;2024-01-15T05:14:13;3.50;;;1.47;;
49820;SDS011;36893;52.520;13.450;2024-01-15T05:24:14;2.57;;;1.10;;
49820;SDS011;36893;52.520;13.450;2024-01-15T05:34:14;2.10;;;1.17;;
49820;SDS011;36893;52.520;13.450;2024-01-15T05:44:15;3.10;;;1.33;;
49820;SDS011;36893;52.520;13.450;2024-01-15T05:54:16;1.80;;;1.00;;
49820;SDS011;36893;52.520;13.450;2024-01-15T06:04:18;2.53;;;0.68;;
49820;SDS011;36893;52.520;13.450;2024-01-15T06:14:19;2.87;;;1.37;;
49820;SDS011;36893;52.520;13.450;2024-01-15T06:24:20;1.67;;;0.90;;
49820;SDS011;36893;52.520;13.450;2024-01-15T06:34:20;1.67;;;1.10;;
49820;SDS011;36893;52.520;13.450;2024-01-15T06:44:21;1.77;;;0.97;;
49820;SDS011;36893;52.520;13.450;2024-01-15T06:54:21;1.07;;;0.77;;
49820;SDS011;36893;52.520;13.450;2024-01-15T07:04:23;1.98;;;1.00;;
49820;SDS011;36893;52.520;13.450;2024-01-15T07:14:24;1.48;;;0.95;;
49820;SDS011;36893;52.520;13.450;2024-01-15T07:24:24;2.23;;;0.97;;
49820;SDS011;36893;52.520;13.450;2024-01-15T07:34:25;3.33;;;1.00;;
49820;SDS011;36893;52.520;13.450;2024-01-15T07:44:26;0.73;;;0.60;;
49820;SDS011;36893;52.520;13.450;2024-01-15T07:54:26;1.00;;;0.70;;
49820;SDS011;36893;52.520;13.450;2024-01-15T08:04:27;1.97;;;0.87;;
49820;SDS011;36893;52.520;13.450;2024-01-15T08:14:28;2.20;;;0.80;;
49820;SDS011;36893;52.520;13.450;2024-01-15T08:24:29;2.90;;;1.10;;
49820;SDS011;36893;52.520;13.450;2024-01-15T08:34:29;1.17;;;0.70;;
49820;SDS011;36893;52.520;13.450;2024-01-15T08:44:31;5.80;;;1.13;;
49820;SDS011;36893;52.520;13.450;2024-01-15T08:54:31;2.60;;;0.50;;
49820;SDS011;36893;52.520;13.450;2024-01-15T09:04:32;3.00;;;0.80;;
49820;SDS011;36893;52.520;13.450;2024-01-15T09:14:33;4.32;;;0.85;;
49820;SDS011;36893;52.520;13.450;2024-01-15T09:24:34;1.50;;;0.70;;
49820;SDS011;36893;52.520;13.450;2024-01-15T09:34:34;1.77;;;0.80;;
49820;SDS011;36893;52.520;13.450;2024-01-15T09:44:35;7.43;;;1.60;;
49820;SDS011;36893;52.520;13.450;2024-01-15T09:54:37;6.25;;;1.20;;
49820;SDS011;36893;52.520;13.450;2024-01-15T10:04:38;3.35;;;1.08;;
49820;SDS011;36893;52.520;13.450;2024-01-15T10:14:40;2.03;;;0.97;;
49820;SDS011;36893;52.520;13.450;2024-01-15T10:24:42;12.25;;;1.52;;
49820;SDS011;36893;52.520;13.450;2024-01-15T10:34:43;2.73;;;0.50;;
49820;SDS011;36893;52.520;13.450;2024-01-15T10:44:44;4.03;;;0.90;;
49820;SDS011;36893;52.520;13.450;2024-01-15T10:54:47;1.35;;;0.70;;
49820;SDS011;36893;52.520;13.450;2024-01-15T11:04:49;2.25;;;1.00;;
49820;SDS011;36893;52.520;13.450;2024-01-15T11:14:49;2.57;;;0.63;;
49820;SDS011;36893;52.520;13.450;2024-01-15T11:24:50;6.80;;;0.93;;
49820;SDS011;36893;52.520;13.450;2024-01-15T11:45:00;4.00;;;0.95;;
49820;SDS011;36893;52.520;13.450;2024-01-15T11:55:19;1.93;;;0.43;;
49820;SDS011;36893;52.520;13.450;2024-01-15T12:05:28;2.58;;;0.75;;
49820;SDS011;36893;52.520;13.450;2024-01-15T12:15:29;6.00;;;0.70;;
49820;SDS011;36893;52.520;13.450;2024-01-15T12:25:31;2.63;;;0.70;;
49820;SDS011;36893;52.520;13.450;2024-01-15T12:35:33;0.90;;;0.40;;
49820;SDS011;36893;52.520;13.450;2024-01-15T12:45:34;3.90;;;1.00;;
49820;SDS011;36893;52.520;13.450;2024-01-15T12:55:38;3.53;;;1.10;;
49820;SDS011;36893;52.520;13.450;2024-01-15T13:05:39;2.33;;;0.80;;
49820;SDS011;36893;52.520;13.450;2024-01-15T13:15:41;2.80;;;1.38;;
49820;SDS011;36893;52.520;13.450;2024-01-15T13:25:41;2.17;;;0.70;;
49820;SDS011;36893;52.520;13.450;2024-01-15T13:35:42;3.07;;;0.63;;
49820;SDS011;36893;52.520;13.450;2024-01-15T13:45:43;5.83;;;1.00;;
49820;SDS011;36893;52.520;13.450;2024-01-15T13:55:43;1.10;;;0.50;;
49820;SDS011;36893;52.520;13.450;2024-01-15T14:05:44;3.47;;;0.60;;
49820;SDS011;36893;52.520;13.450;2024-01-15T14:15:45;2.00;;;0.90;;
49820;SDS011;36893;52.520;13.450;2024-01-15T14:25:45;1.47;;;0.70;;
49820;SDS011;36893;52.520;13.450;2024-01-15T14:35:46;25.57;;;2.37;;
49820;SDS011;36893;52.520;13.450;2024-01-15T14:45:47;7.80;;;1.33;;
49820;SDS011;36893;52.520;13.450;2024-01-15T14:55:47;5.63;;;1.00;;
49820;SDS011;36893;52.520;13.450;2024-01-15T15:05:48;3.87;;;0.73;;
49820;SDS011;36893;52.520;13.450;2024-01-15T15:15:49;11.70;;;2.10;;
49820;SDS011;36893;52.520;13.450;2024-01-15T15:25:49;5.33;;;1.23;;
49820;SDS011;36893;52.520;13.450;2024-01-15T15:35:50;4.27;;;1.50;;
49820;SDS011;36893;52.520;13.450;2024-01-15T15:45:51;16.20;;;1.73;;
49820;SDS011;36893;52.520;13.450;2024-01-15T15:55:51;11.97;;;1.20;;
49820;SDS011;36893;52.520;13.450;2024-01-15T16:05:52;8.20;;;1.45;;
49820;SDS011;36893;52.520;13.450;2024-01-15T16:15:53;2.17;;;1.03;;
49820;SDS011;36893;52.520;13.450;2024-01-15T16:25:53;3.20;;;1.20;;
49820;SDS011;36893;52.520;13.450;2024-01-15T16:35:54;5.07;;;1.10;;
49820;SDS011;36893;52.520;13.450;2024-01-15T16:45:55;5.07;;;1.13;;
49820;SDS011;36893;52.520;13.450;2024-01-15T16:55:56;9.30;;;1.17;;
49820;SDS011;36893;52.520;13.450;2024-01-15T17:05:56;5.00;;;1.23;;
49820;SDS011;36893;52.520;13.450;2024-01-15T17:15:57;5.40;;;1.20;;
49820;SDS011;36893;52.520;13.450;2024-01-15T17:25:58;3.85;;;0.82;;
49820;SDS011;36893;52.520;13.450;2024-01-15T17:35:59;2.17;;;0.93;;
49820;SDS011;36893;52.520;13.450;2024-01-15T17:46:00;2.67;;;0.85;;
49820;SDS011;36893;52.520;13.450;2024-01-15T17:56:01;3.30;;;0.80;;
49820;SDS011;36893;52.520;13.450;2024-01-15T18:06:01;2.03;;;0.80;;
49820;SDS011;36893;52.520;13.450;2024-01-15T18:16:02;1.65;;;0.60;;
49820;SDS011;36893;52.520;13.450;2024-01-15T18:26:04;6.82;;;1.00;;
49820;SDS011;36893;52.520;13.450;2024-01-15T18:36:05;4.38;;;0.80;;
49820;SDS011;36893;52.520;13.450;2024-01-15T18:46:06;4.38;;;1.13;;
49820;SDS011;36893;52.520;13.450;2024-01-15T18:56:07;2.20;;;1.13;;
49820;SDS011;36893;52.520;13.450;2024-01-15T19:06:08;0.50;;;0.40;;
49820;SDS011;36893;52.520;13.450;2024-01-15T19:16:09;3.00;;;0.80;;
49820;SDS011;36893;52.520;13.450;2024-01-15T19:26:16;0.73;;;0.50;;
49820;SDS011;36893;52.520;13.450;2024-01-15T19:36:21;1.33;;;0.70;;
49820;SDS011;36893;52.520;13.450;2024-01-15T19:46:23;7.07;;;1.00;;
49820;SDS011;36893;52.520;13.450;2024-01-15T19:56:24;2.33;;;0.53;;
49820;SDS011;36893;52.520;13.450;2024-01-15T20:06:24;1.80;;;0.67;;
49820;SDS011;36893;52.520;13.450;2024-01-15T20:16:25;1.13;;;0.50;;
49820;SDS011;36893;52.520;13.450;2024-01-15T20:26:26;1.07;;;0.67;;
49820;SDS011;36893;52.520;13.450;2024-01-15T20:36:26;4.50;;;0.60;;
49820;SDS011;36893;52.520;13.450;2024-01-15T20:46:27;2.63;;;0.43;;
49820;SDS011;36893;52.520;13.450;2024-01-15T20:56:28;1.10;;;0.50;;
49820;SDS011;36893;52.520;13.450;2024-01-15T21:06:28;0.63;;;0.50;;
49820;SDS011;36893;52.520;13.450;2024-01-15T21:16:29;1.97;;;0.70;;
49820;SDS011;36893;52.520;13.450;2024-01-15T21:26:30;13.57;;;1.00;;
49820;SDS011;36893;52.520;13.450;2024-01-15T21:36:30;2.93;;;0.60;;
49820;SDS011;36893;52.520;13.450;2024-01-15T21:46:31;5.40;;;0.73;;
49820;SDS011;36893;52.520;13.450;2024-01-15T21:56:31;4.40;;;0.70;;
49820;SDS011;36893;52.520;13.450;2024-01-15T22:06:32;3.47;;;0.77;;
49820;SDS011;36893;52.520;13.450;2024-01-15T22:16:35;3.35;;;0.55;;
49820;SDS011;36893;52.520;13.450;2024-01-15T22:26:36;4.53;;;0.60;;
49820;SDS011;36893;52.520;13.450;2024-01-15T22:36:37;2.83;;;0.70;;
49820;SDS011;36893;52.520;13.450;2024-01-15T22:46:38;5.37;;;0.80;;
49820;SDS011;36893;52.520;13.450;2024-01-15T22:56:39;3.43;;;0.40;;
49820;SDS011;36893;52.520;13.450;2024-01-15T23:06:40;1.17;;;0.30;;
49820;SDS011;36893;52.520;13.450;2024-01-15T23:16:41;1.75;;;0.68;;
49820;SDS011;36893;52.520;13.450;2024-01-15T23:26:42;0.47;;;0.22;;
49820;SDS011;36893;52.520;13.450;2024-01-15T23:36:44;0.90;;;0.43;;
49820;SDS011;36893;52.520;13.450;2024-01-15T23:46:45;4.32;;;0.50;;
49820;SDS011;36893;52.520;13.450;2024-01-15T23:56:46;1.23;;;0.40;;
